createdAt,value
2023-04-24T00:02:12.373Z,9.40
2023-04-24T00:07:21.474Z,9.36
2023-04-24T00:12:28.144Z,9.20
2023-04-24T00:17:34.679Z,9.06
2023-04-24T00:22:43.049Z,9.04
2023-04-24T00:27:50.547Z,8.94
2023-04-24T00:32:56.997Z,8.93
2023-04-24T00:38:05.433Z,8.92
2023-04-24T00:43:11.551Z,8.81
2023-04-24T00:48:20.723Z,8.73
2023-04-24T00:53:28.602Z,8.71
2023-04-24T00:58:35.946Z,8.41
2023-04-24T01:03:43.114Z,8.44
2023-04-24T01:08:52.333Z,8.45
2023-04-24T01:14:00.253Z,8.41
2023-04-24T01:19:06.899Z,7.85
2023-04-24T01:24:15.540Z,8.06
2023-04-24T01:29:22.147Z,7.83
2023-04-24T01:34:28.567Z,8.01
2023-04-24T01:39:36.251Z,7.80
2023-04-24T01:44:43.117Z,7.91
2023-04-24T01:49:50.531Z,7.83
2023-04-24T01:54:58.503Z,7.91
2023-04-24T02:00:06.925Z,8.01
2023-04-24T02:05:22.369Z,8.00
2023-04-24T02:10:30.268Z,7.84
2023-04-24T02:15:39.302Z,7.68
2023-04-24T02:20:46.591Z,7.61
2023-04-24T02:25:57.117Z,7.54
2023-04-24T02:31:04.263Z,7.43
2023-04-24T02:36:10.632Z,7.47
2023-04-24T02:41:18.331Z,7.37
2023-04-24T02:46:24.913Z,7.38
2023-04-24T02:51:32.246Z,7.34
2023-04-24T02:56:39.974Z,7.33
2023-04-24T03:01:49.946Z,7.28
2023-04-24T03:06:57.804Z,7.24
2023-04-24T03:12:05.717Z,7.15
2023-04-24T03:17:11.897Z,7.14
2023-04-24T03:22:18.628Z,7.12
2023-04-24T03:27:30.060Z,6.77
2023-04-24T03:32:41.658Z,6.79
2023-04-24T03:37:51.558Z,6.58
2023-04-24T03:43:18.118Z,6.57
2023-04-24T03:48:25.056Z,6.59
2023-04-24T03:53:32.587Z,6.80
2023-04-24T03:58:40.842Z,6.85
2023-04-24T04:03:47.730Z,6.83
2023-04-24T04:08:57.679Z,6.94
2023-04-24T04:14:06.599Z,6.79
2023-04-24T04:19:15.015Z,6.99
2023-04-24T04:24:23.756Z,7.25
2023-04-24T04:29:32.821Z,7.35
2023-04-24T04:34:41.451Z,7.47
2023-04-24T04:39:50.983Z,7.48
2023-04-24T04:45:02.213Z,7.60
2023-04-24T04:50:21.985Z,8.09
2023-04-24T04:55:33.500Z,8.51
2023-04-24T05:00:49.996Z,8.75
2023-04-24T05:06:07.098Z,9.06
2023-04-24T05:11:17.881Z,9.42
2023-04-24T05:16:25.971Z,9.69
2023-04-24T05:21:34.986Z,9.96
2023-04-24T05:26:41.758Z,10.14
2023-04-24T05:31:51.302Z,10.25
2023-04-24T05:36:58.699Z,10.39
2023-04-24T05:42:06.789Z,10.49
2023-04-24T05:47:14.758Z,10.62
2023-04-24T05:52:21.546Z,10.84
2023-04-24T05:57:29.591Z,11.21
2023-04-24T06:02:44.253Z,11.40
2023-04-24T06:07:53.859Z,11.49
2023-04-24T06:13:03.215Z,11.67
2023-04-24T06:18:13.832Z,11.89
2023-04-24T06:23:22.065Z,12.15
2023-04-24T06:28:28.706Z,12.38
2023-04-24T06:33:36.711Z,12.56
2023-04-24T06:38:43.062Z,12.75
2023-04-24T06:43:49.571Z,12.86
2023-04-24T06:48:58.008Z,13.10
2023-04-24T06:54:04.569Z,13.34
2023-04-24T06:59:10.993Z,13.71
2023-04-24T07:04:19.699Z,14.25
2023-04-24T07:09:27.708Z,14.72
2023-04-24T07:14:33.981Z,15.16
2023-04-24T07:19:42.057Z,15.63
2023-04-24T07:24:49.330Z,15.92
2023-04-24T07:29:55.874Z,15.67
2023-04-24T07:35:04.055Z,15.52
2023-04-24T07:40:11.463Z,15.54
2023-04-24T07:45:18.283Z,15.64
2023-04-24T07:50:26.022Z,15.76
2023-04-24T07:55:32.498Z,15.84
2023-04-24T08:00:39.158Z,16.09
2023-04-24T08:05:46.967Z,16.35
2023-04-24T08:10:53.649Z,16.41
2023-04-24T08:16:00.516Z,16.46
2023-04-24T08:21:08.655Z,16.53
2023-04-24T08:26:18.167Z,16.51
2023-04-24T08:31:26.398Z,16.62
2023-04-24T08:36:43.911Z,16.77
2023-04-24T08:41:53.245Z,16.91
2023-04-24T08:47:00.438Z,16.94
2023-04-24T08:52:08.998Z,16.93
2023-04-24T08:57:18.242Z,16.92
2023-04-24T09:02:26.309Z,17.10
2023-04-24T09:07:38.111Z,17.20
2023-04-24T09:12:46.613Z,17.35
2023-04-24T09:17:53.578Z,17.52
2023-04-24T09:23:02.206Z,17.72
2023-04-24T09:28:09.192Z,18.22
2023-04-24T09:33:16.858Z,18.32
2023-04-24T09:38:34.780Z,18.35
2023-04-24T09:43:41.411Z,18.57
2023-04-24T09:48:48.123Z,18.80
2023-04-24T09:53:56.785Z,18.58
2023-04-24T09:59:10.161Z,18.87
2023-04-24T10:04:21.928Z,19.08
2023-04-24T10:09:30.611Z,19.17
2023-04-24T10:14:38.109Z,19.44
2023-04-24T10:19:45.976Z,19.52
2023-04-24T10:24:54.911Z,19.71
2023-04-24T10:30:02.696Z,20.03
2023-04-24T10:35:11.894Z,19.91
2023-04-24T10:40:28.039Z,19.95
2023-04-24T10:45:34.557Z,19.88
2023-04-24T10:50:49.018Z,19.73
2023-04-24T10:56:04.964Z,20.42
2023-04-24T11:01:11.742Z,20.28
2023-04-24T11:06:18.376Z,20.09
2023-04-24T11:11:32.633Z,20.15
2023-04-24T11:16:54.355Z,20.17
2023-04-24T11:22:04.376Z,19.99
2023-04-24T11:27:18.031Z,19.72
2023-04-24T11:32:30.121Z,19.48
2023-04-24T11:37:43.114Z,18.98
2023-04-24T11:42:56.429Z,18.31
2023-04-24T11:48:03.364Z,17.44
2023-04-24T11:53:10.519Z,17.04
2023-04-24T11:58:23.173Z,16.79
2023-04-24T12:03:30.195Z,18.07
2023-04-24T12:08:38.445Z,18.68
2023-04-24T12:13:47.802Z,19.02
2023-04-24T12:18:55.113Z,19.25
2023-04-24T12:24:01.681Z,19.47
2023-04-24T12:29:10.116Z,19.60
2023-04-24T12:34:22.833Z,19.79
2023-04-24T12:39:29.314Z,19.87
2023-04-24T12:44:38.486Z,19.99
2023-04-24T12:49:45.209Z,20.15
2023-04-24T12:54:55.602Z,20.12
2023-04-24T13:00:04.860Z,20.32
2023-04-24T13:05:15.253Z,20.40
2023-04-24T13:10:21.861Z,20.43
2023-04-24T13:15:29.979Z,20.46
2023-04-24T13:20:38.005Z,20.22
2023-04-24T13:25:44.678Z,19.40
2023-04-24T13:30:52.764Z,18.06
2023-04-24T13:35:59.388Z,16.91
2023-04-24T13:41:06.317Z,16.37
2023-04-24T13:46:14.310Z,16.03
2023-04-24T13:51:21.048Z,15.83
2023-04-24T13:56:27.408Z,15.71
2023-04-24T14:01:35.626Z,15.70
2023-04-24T14:06:42.291Z,15.69
2023-04-24T14:23:40.601Z,15.88
2023-04-24T14:28:47.213Z,15.67
2023-04-24T14:33:53.532Z,15.66
2023-04-24T14:39:01.243Z,15.65
2023-04-24T14:44:08.026Z,15.60
2023-04-24T14:49:14.893Z,15.53
2023-04-24T14:54:26.653Z,15.69
2023-04-24T14:59:33.363Z,15.78
2023-04-24T15:04:40.099Z,15.82
2023-04-24T15:09:51.217Z,15.79
2023-04-24T15:14:57.723Z,15.91
2023-04-24T15:20:04.921Z,15.86
2023-04-24T15:25:14.362Z,15.79
2023-04-24T15:30:21.073Z,15.82
2023-04-24T15:35:27.521Z,15.93
2023-04-24T15:40:35.471Z,16.04
2023-04-24T15:45:42.165Z,16.10
2023-04-24T15:50:49.202Z,16.23
2023-04-24T15:55:59.051Z,16.44
2023-04-24T16:01:06.226Z,16.56
2023-04-24T16:06:14.917Z,16.58
2023-04-24T16:11:23.358Z,16.61
2023-04-24T16:16:30.967Z,16.63
2023-04-24T16:21:38.376Z,16.60
2023-04-24T16:26:46.734Z,16.61
2023-04-24T16:31:53.668Z,16.48
2023-04-24T16:37:01.009Z,16.33
2023-04-24T16:42:09.090Z,16.18
2023-04-24T16:47:15.903Z,16.07
2023-04-24T16:52:22.600Z,15.95
2023-04-24T16:57:31.475Z,15.84
2023-04-24T17:02:38.471Z,15.72
2023-04-24T17:07:46.086Z,15.59
2023-04-24T17:12:55.250Z,15.41
2023-04-24T17:18:03.606Z,15.27
2023-04-24T17:23:12.315Z,15.16
2023-04-24T17:28:30.892Z,15.03
2023-04-24T17:33:39.810Z,14.81
2023-04-24T17:38:49.705Z,14.63
2023-04-24T17:44:00.896Z,14.51
2023-04-24T17:49:08.552Z,14.26
2023-04-24T17:54:18.154Z,14.20
2023-04-24T17:59:28.806Z,14.06
2023-04-24T18:04:37.206Z,13.88
2023-04-24T18:09:47.450Z,13.85
2023-04-24T18:15:12.944Z,13.71
2023-04-24T18:20:23.446Z,13.61
2023-04-24T18:25:32.939Z,13.33
2023-04-24T18:30:44.573Z,13.13
2023-04-24T18:35:52.927Z,13.15
2023-04-24T18:41:01.111Z,12.94
2023-04-24T18:46:11.079Z,12.66
2023-04-24T18:51:19.382Z,12.52
2023-04-24T18:56:27.792Z,12.48
2023-04-24T19:01:41.743Z,12.38
2023-04-24T19:07:01.833Z,12.32
2023-04-24T19:12:11.158Z,12.48
2023-04-24T19:17:25.184Z,12.47
2023-04-24T19:22:32.974Z,12.35
2023-04-24T19:27:41.723Z,12.42
2023-04-24T19:32:53.838Z,12.39
2023-04-24T19:38:03.415Z,12.32
2023-04-24T19:43:12.148Z,12.30
2023-04-24T19:48:31.291Z,12.13
2023-04-24T19:53:41.903Z,11.97
2023-04-24T19:58:50.032Z,11.84
2023-04-24T20:03:59.774Z,11.76
2023-04-24T20:09:07.600Z,11.76
2023-04-24T20:14:14.420Z,11.73
2023-04-24T20:19:22.671Z,11.78
2023-04-24T20:24:30.189Z,11.84
2023-04-24T20:29:37.168Z,11.84
2023-04-24T20:34:45.401Z,11.88
2023-04-24T20:39:52.381Z,11.94
2023-04-24T20:44:59.105Z,12.02
2023-04-24T20:50:08.893Z,12.08
2023-04-24T20:55:15.798Z,12.10
2023-04-24T21:00:22.379Z,12.11
2023-04-24T21:05:30.557Z,12.08
2023-04-24T21:10:37.338Z,12.07
2023-04-24T21:15:44.273Z,11.98
2023-04-24T21:20:53.763Z,11.97
2023-04-24T21:26:00.720Z,11.95
2023-04-24T21:31:07.973Z,11.90
2023-04-24T21:36:15.827Z,11.86
2023-04-24T21:41:22.209Z,11.82
2023-04-24T21:46:29.172Z,11.63
2023-04-24T21:51:36.928Z,11.55
2023-04-24T21:56:43.216Z,11.43
2023-04-24T22:01:49.791Z,11.24
2023-04-24T22:06:57.685Z,11.11
2023-04-24T22:12:04.756Z,11.06
2023-04-24T22:17:11.550Z,11.03
2023-04-24T22:22:19.800Z,10.94
2023-04-24T22:27:26.592Z,10.87
2023-04-24T22:32:33.452Z,10.75
2023-04-24T22:37:41.237Z,10.74
2023-04-24T22:42:47.532Z,10.63
2023-04-24T22:47:54.178Z,10.51
2023-04-24T22:53:02.825Z,10.54
2023-04-24T22:58:09.793Z,10.49
2023-04-24T23:03:16.756Z,10.45
2023-04-24T23:08:25.037Z,10.40
2023-04-24T23:13:31.576Z,10.30
2023-04-24T23:18:38.680Z,10.31
2023-04-24T23:23:46.609Z,10.31
2023-04-24T23:28:53.242Z,10.30
2023-04-24T23:34:02.224Z,10.32
2023-04-24T23:39:09.881Z,10.30
2023-04-24T23:44:16.227Z,10.16
2023-04-24T23:49:22.510Z,10.15
2023-04-24T23:54:30.262Z,10.20
2023-04-24T23:59:37.204Z,10.26
